Tk Rotterdam — A8RG8 — position and weather

sailwx.info

Track history (hours):
 
Tides and Currents Weather Stations Pressure Air Temp Water Temp Dewpoint Dewpoint Depression Visibility Wind Speed Wind Dir Waves Ship Positions

Tk Rotterdam

Last reported at 2017-Mar-28 13:09 UTC. Time now 2017-Mar-28 18:00 UTC.
Position N 37°53' E 023°12'.

Length 130 m; draft 7.2 m.

Type: Cargo ship. MMSI: 636014098.

Date/timePositionNaut miles runAvg speedWind from/ knotsBaromVisibWave heightAir tempDewpointWater temp
2017-Mar-28 13:09N 37°53' E 023°12'5 8.7
2017-Mar-28 12:31N 37°52' E 023°19'9 9.1
2017-Mar-28 11:33N 37°50' E 023°30'8 8.4
2017-Mar-28 10:33N 37°49' E 023°40'9 8.7
2017-Mar-28 09:33N 37°41' E 023°45'  
2017-Mar-19 16:33N 35°48' E 015°04'19 9.1
2017-Mar-19 14:29N 35°49' E 014°41'4 4.6
2017-Mar-19 13:34N 35°50' E 014°36'0 0.0
2017-Mar-19 12:33N 35°50' E 014°36'0 0.0
2017-Mar-19 11:33N 35°50' E 014°36'0 0.0
2017-Mar-19 10:29N 35°50' E 014°36'0 0.0
2017-Mar-19 09:34N 35°50' E 014°36'3 2.8
2017-Mar-19 08:34N 35°53' E 014°38'9 9.2
2017-Mar-19 07:33N 35°60' E 014°30'10 9.6
2017-Mar-19 06:31N 36°07' E 014°21'9 9.8
2017-Mar-19 05:33N 36°13' E 014°13'10 9.7
2017-Mar-19 04:33N 36°18' E 014°03'11 9.8
2017-Mar-19 03:28N 36°22' E 013°51'27 8.7
2017-Mar-19 00:23N 36°33' E 013°20'7 8.6
2017-Mar-18 23:32N 36°36' E 013°12'9 8.7
2017-Mar-18 22:34N 36°39' E 013°02'10 8.5
2017-Mar-18 21:23N 36°42' E 012°50'7 8.7
2017-Mar-18 20:32N 36°45' E 012°41'17 8.6
2017-Mar-18 18:32N 36°51' E 012°21'9 8.6
2017-Mar-18 17:32N 36°55' E 012°11'  
Track history (hours):
 
Tides and Currents Weather Stations Pressure Air Temp Water Temp Dewpoint Dewpoint Depression Visibility Wind Speed Wind Dir Waves Ship Positions

Tk Rotterdam

Last reported at 2017-Mar-28 13:09 UTC. Time now 2017-Mar-28 18:00 UTC.
Position N 37°53' E 023°12'.

Length 130 m; draft 7.2 m.

Type: Cargo ship. MMSI: 636014098.

Date/timePositionNaut miles runAvg speedWind from/ knotsBaromVisibWave heightAir tempDewpointWater temp
2017-Mar-28 13:09N 37°53' E 023°12'5 8.7
2017-Mar-28 12:31N 37°52' E 023°19'9 9.1
2017-Mar-28 11:33N 37°50' E 023°30'8 8.4
2017-Mar-28 10:33N 37°49' E 023°40'9 8.7
2017-Mar-28 09:33N 37°41' E 023°45'  
2017-Mar-19 16:33N 35°48' E 015°04'19 9.1
2017-Mar-19 14:29N 35°49' E 014°41'4 4.6
2017-Mar-19 13:34N 35°50' E 014°36'0 0.0
2017-Mar-19 12:33N 35°50' E 014°36'0 0.0
2017-Mar-19 11:33N 35°50' E 014°36'0 0.0
2017-Mar-19 10:29N 35°50' E 014°36'0 0.0
2017-Mar-19 09:34N 35°50' E 014°36'3 2.8
2017-Mar-19 08:34N 35°53' E 014°38'9 9.2
2017-Mar-19 07:33N 35°60' E 014°30'10 9.6
2017-Mar-19 06:31N 36°07' E 014°21'9 9.8
2017-Mar-19 05:33N 36°13' E 014°13'10 9.7
2017-Mar-19 04:33N 36°18' E 014°03'11 9.8
2017-Mar-19 03:28N 36°22' E 013°51'27 8.7
2017-Mar-19 00:23N 36°33' E 013°20'7 8.6
2017-Mar-18 23:32N 36°36' E 013°12'9 8.7
2017-Mar-18 22:34N 36°39' E 013°02'10 8.5
2017-Mar-18 21:23N 36°42' E 012°50'7 8.7
2017-Mar-18 20:32N 36°45' E 012°41'17 8.6
2017-Mar-18 18:32N 36°51' E 012°21'9 8.6
2017-Mar-18 17:32N 36°55' E 012°11'  

Dump ship's entire track history